createdAt,value
2019-02-21T00:00:48.172Z,99.90
2019-02-21T00:03:19.741Z,99.90
2019-02-21T00:05:51.191Z,99.90
2019-02-21T00:08:22.590Z,99.90
2019-02-21T00:10:53.866Z,99.90
2019-02-21T00:13:38.295Z,99.90
2019-02-21T00:16:09.652Z,99.90
2019-02-21T00:18:41.028Z,99.90
2019-02-21T00:21:12.604Z,99.90
2019-02-21T00:23:43.952Z,99.90
2019-02-21T00:26:15.205Z,99.90
2019-02-21T00:28:46.750Z,99.90
2019-02-21T00:31:18.218Z,99.90
2019-02-21T00:33:49.619Z,99.90
2019-02-21T00:36:21.968Z,99.90
2019-02-21T00:38:53.277Z,99.90
2019-02-21T00:41:24.617Z,99.90
2019-02-21T00:43:55.965Z,99.90
2019-02-21T00:46:27.425Z,99.90
2019-02-21T00:48:58.788Z,99.90
2019-02-21T00:51:30.096Z,99.90
2019-02-21T00:54:01.397Z,99.90
2019-02-21T00:56:32.913Z,99.90
2019-02-21T00:59:04.326Z,99.90
2019-02-21T01:01:35.777Z,99.90
2019-02-21T01:04:07.335Z,99.90
2019-02-21T01:06:38.762Z,99.90
2019-02-21T01:09:10.135Z,99.90
2019-02-21T01:11:41.611Z,99.90
2019-02-21T01:14:13.078Z,99.90
2019-02-21T01:16:44.463Z,99.90
2019-02-21T01:19:15.873Z,99.90
2019-02-21T01:21:47.178Z,99.90
2019-02-21T01:24:18.443Z,99.90
2019-02-21T01:26:50.887Z,99.90
2019-02-21T01:29:22.315Z,99.90
2019-02-21T01:31:53.777Z,99.90
2019-02-21T01:34:25.218Z,99.90
2019-02-21T01:36:56.550Z,99.90
2019-02-21T01:39:27.965Z,99.90
2019-02-21T01:41:59.537Z,99.90
2019-02-21T01:44:30.790Z,99.90
2019-02-21T01:47:02.098Z,99.90
2019-02-21T01:49:33.357Z,99.90
2019-02-21T01:52:04.747Z,99.90
2019-02-21T01:54:36.103Z,99.90
2019-02-21T01:57:07.492Z,99.90
2019-02-21T01:59:38.749Z,99.90
2019-02-21T02:02:10.222Z,99.90
2019-02-21T02:04:41.494Z,99.90
2019-02-21T02:07:13.006Z,99.90
2019-02-21T02:09:44.409Z,99.90
2019-02-21T02:12:17.408Z,99.90
2019-02-21T02:14:48.857Z,99.90
2019-02-21T02:17:21.327Z,99.90
2019-02-21T02:19:52.752Z,99.90
2019-02-21T02:22:25.325Z,99.90
2019-02-21T02:24:56.682Z,99.90
2019-02-21T02:27:28.154Z,99.90
2019-02-21T02:29:59.541Z,99.90
2019-02-21T02:32:31.291Z,99.90
2019-02-21T02:35:02.617Z,99.90
2019-02-21T02:37:34.117Z,99.90
2019-02-21T02:40:06.503Z,99.90
2019-02-21T02:42:37.870Z,99.90
2019-02-21T02:45:09.290Z,99.90
2019-02-21T02:47:40.710Z,99.90
2019-02-21T02:50:12.058Z,99.90
2019-02-21T02:52:43.591Z,99.90
2019-02-21T02:55:15.000Z,99.90
2019-02-21T02:57:47.367Z,99.90
2019-02-21T03:00:18.789Z,99.90
2019-02-21T03:02:50.329Z,99.90
2019-02-21T03:05:21.686Z,99.90
2019-02-21T03:07:53.179Z,99.90
2019-02-21T03:10:24.637Z,99.90
2019-02-21T03:12:56.032Z,99.90
2019-02-21T03:15:27.319Z,99.90
2019-02-21T03:17:58.720Z,99.90
2019-02-21T03:20:30.062Z,99.90
2019-02-21T03:23:02.979Z,99.90
2019-02-21T03:25:34.282Z,99.90
2019-02-21T03:28:05.748Z,99.90
2019-02-21T03:30:37.080Z,99.90
2019-02-21T03:33:08.605Z,99.90
2019-02-21T03:35:40.947Z,99.90
2019-02-21T03:38:12.465Z,99.90
2019-02-21T03:40:43.829Z,99.90
2019-02-21T03:43:15.273Z,99.90
2019-02-21T03:45:46.559Z,99.90
2019-02-21T03:48:17.942Z,99.90
2019-02-21T03:50:49.267Z,99.90
2019-02-21T03:53:20.661Z,99.90
2019-02-21T03:55:52.557Z,99.90
2019-02-21T03:58:24.056Z,99.90
2019-02-21T04:00:55.562Z,99.90
2019-02-21T04:03:27.343Z,99.90
2019-02-21T04:05:58.759Z,99.90
2019-02-21T04:08:30.122Z,99.90
2019-02-21T04:11:01.459Z,99.90
2019-02-21T04:13:32.764Z,99.90
2019-02-21T04:16:04.671Z,99.90
2019-02-21T04:18:35.997Z,99.90
2019-02-21T04:21:07.294Z,99.90
2019-02-21T04:23:38.636Z,99.90
2019-02-21T04:26:10.033Z,99.90
2019-02-21T04:28:41.413Z,99.90
2019-02-21T04:31:12.664Z,99.90
2019-02-21T04:33:47.416Z,99.90
2019-02-21T04:36:18.766Z,99.90
2019-02-21T04:38:54.518Z,99.90
2019-02-21T04:41:25.932Z,99.90
2019-02-21T04:43:58.954Z,99.90
2019-02-21T04:46:30.382Z,99.90
2019-02-21T04:49:03.067Z,99.90
2019-02-21T04:51:36.394Z,99.90
2019-02-21T04:54:09.393Z,99.90
2019-02-21T04:56:40.841Z,99.90
2019-02-21T04:59:12.164Z,99.90
2019-02-21T05:01:43.752Z,99.90
2019-02-21T05:04:15.250Z,99.90
2019-02-21T05:06:46.517Z,99.90
2019-02-21T05:09:17.857Z,99.90
2019-02-21T05:11:49.119Z,99.90
2019-02-21T05:14:20.450Z,99.90
2019-02-21T05:16:51.707Z,99.90
2019-02-21T05:19:23.024Z,99.90
2019-02-21T05:21:54.296Z,99.90
2019-02-21T05:24:25.642Z,99.90
2019-02-21T05:26:58.636Z,99.90
2019-02-21T05:29:29.969Z,99.90
2019-02-21T05:32:08.784Z,99.90
2019-02-21T05:34:56.820Z,99.90
2019-02-21T05:37:35.655Z,99.90
2019-02-21T05:40:15.619Z,99.90
2019-02-21T05:42:48.587Z,99.90
2019-02-21T05:45:37.533Z,99.90
2019-02-21T05:48:10.434Z,99.90
2019-02-21T05:50:46.189Z,99.90
2019-02-21T05:53:36.945Z,99.90
2019-02-21T05:56:27.996Z,99.90
2019-02-21T05:59:03.820Z,99.90
2019-02-21T06:01:37.937Z,99.90
2019-02-21T06:04:14.019Z,99.90
2019-02-21T06:06:46.954Z,99.90
2019-02-21T06:09:19.991Z,99.90
2019-02-21T06:11:55.878Z,99.90
2019-02-21T06:14:37.589Z,99.90
2019-02-21T06:17:10.659Z,99.90
2019-02-21T06:19:44.701Z,99.90
2019-02-21T06:22:20.245Z,99.90
2019-02-21T06:25:02.049Z,99.90
2019-02-21T06:27:40.737Z,99.90
2019-02-21T06:30:13.762Z,99.90
2019-02-21T06:32:45.177Z,99.90
2019-02-21T06:35:16.506Z,99.90
2019-02-21T06:37:47.882Z,99.90
2019-02-21T06:40:19.165Z,99.90
2019-02-21T06:42:50.476Z,99.90
2019-02-21T06:45:21.728Z,99.90
2019-02-21T06:47:53.127Z,99.90
2019-02-21T06:50:27.110Z,99.90
2019-02-21T06:52:57.392Z,99.90
2019-02-21T06:55:28.712Z,99.90
2019-02-21T06:58:00.144Z,99.90
2019-02-21T07:00:31.402Z,99.90
2019-02-21T07:03:02.744Z,99.90
2019-02-21T07:05:34.005Z,99.90
2019-02-21T07:08:05.453Z,99.90
2019-02-21T07:10:36.698Z,99.90
2019-02-21T07:13:08.010Z,99.90
2019-02-21T07:15:41.318Z,99.90
2019-02-21T07:18:12.326Z,99.90
2019-02-21T07:20:43.644Z,99.90
2019-02-21T07:23:15.045Z,99.90
2019-02-21T07:25:50.635Z,99.90
2019-02-21T07:28:21.988Z,99.90
2019-02-21T07:30:53.458Z,99.90
2019-02-21T07:33:28.786Z,99.90
2019-02-21T07:35:57.768Z,99.90
2019-02-21T07:38:29.164Z,99.90
2019-02-21T07:41:00.467Z,99.90
2019-02-21T07:43:32.114Z,99.90
2019-02-21T07:46:03.467Z,99.90
2019-02-21T07:48:36.617Z,99.90
2019-02-21T07:51:08.213Z,99.90
2019-02-21T07:53:39.545Z,99.90
2019-02-21T07:56:10.874Z,99.90
2019-02-21T07:58:42.196Z,99.90
2019-02-21T08:01:13.458Z,99.90
2019-02-21T08:03:48.109Z,99.90
2019-02-21T08:06:19.630Z,99.90
2019-02-21T08:08:50.802Z,99.90
2019-02-21T08:11:22.171Z,99.90
2019-02-21T08:13:54.620Z,99.90
2019-02-21T08:16:25.892Z,99.90
2019-02-21T08:18:57.231Z,99.90
2019-02-21T08:21:28.660Z,99.90
2019-02-21T08:24:00.022Z,99.90
2019-02-21T08:26:31.373Z,99.90
2019-02-21T08:29:02.842Z,99.90
2019-02-21T08:31:34.256Z,99.90
2019-02-21T08:34:19.758Z,99.90
2019-02-21T08:36:51.153Z,99.90
2019-02-21T08:39:22.476Z,99.90
2019-02-21T08:41:55.229Z,99.90
2019-02-21T08:44:28.775Z,99.90
2019-02-21T08:46:59.798Z,99.90
2019-02-21T08:49:31.294Z,99.90
2019-02-21T08:52:02.623Z,99.90
2019-02-21T08:54:33.912Z,99.90
2019-02-21T08:57:05.276Z,99.90
2019-02-21T08:59:36.684Z,99.90
2019-02-21T09:02:08.083Z,99.90
2019-02-21T09:04:42.675Z,99.90
2019-02-21T09:07:14.015Z,99.90
2019-02-21T09:09:45.332Z,99.90
2019-02-21T09:12:16.600Z,99.90
2019-02-21T09:14:47.963Z,99.90
2019-02-21T09:17:19.282Z,99.90
2019-02-21T09:19:50.700Z,99.90
2019-02-21T09:22:22.045Z,99.90
2019-02-21T09:24:53.505Z,99.90
2019-02-21T09:27:24.830Z,99.90
2019-02-21T09:29:56.216Z,99.90
2019-02-21T09:32:27.603Z,99.90
2019-02-21T09:34:58.911Z,99.90
2019-02-21T09:37:30.260Z,99.90
2019-02-21T09:40:01.590Z,99.90
2019-02-21T09:42:33.182Z,99.90
2019-02-21T09:45:09.330Z,99.90
2019-02-21T09:47:40.422Z,99.90
2019-02-21T09:50:12.884Z,99.90
2019-02-21T09:52:44.364Z,99.90
2019-02-21T09:55:18.445Z,99.90
2019-02-21T09:57:49.774Z,99.90
2019-02-21T10:00:24.796Z,99.90
2019-02-21T10:02:56.790Z,99.90
2019-02-21T10:05:28.233Z,99.90
2019-02-21T10:07:59.775Z,99.90
2019-02-21T10:10:31.253Z,99.90
2019-02-21T10:13:02.638Z,99.90
2019-02-21T10:15:33.964Z,99.90
2019-02-21T10:18:05.383Z,99.90
2019-02-21T10:20:36.718Z,99.90
2019-02-21T10:23:08.092Z,99.90
2019-02-21T10:25:41.209Z,99.90
2019-02-21T10:28:12.574Z,99.90
2019-02-21T10:30:44.072Z,99.90
2019-02-21T10:33:15.518Z,99.90
2019-02-21T10:35:47.793Z,99.90
2019-02-21T10:38:19.110Z,99.90
2019-02-21T10:40:50.458Z,99.90
2019-02-21T10:43:21.857Z,99.90
2019-02-21T10:45:53.315Z,99.90
2019-02-21T10:48:25.182Z,99.90
2019-02-21T10:50:56.638Z,99.90
2019-02-21T10:53:28.108Z,99.90
2019-02-21T10:55:59.501Z,99.90
2019-02-21T10:58:30.919Z,99.90
2019-02-21T11:01:02.360Z,99.90
2019-02-21T11:03:34.831Z,99.90
2019-02-21T11:06:06.229Z,99.90
2019-02-21T11:08:37.526Z,99.90
2019-02-21T11:11:10.121Z,99.90
2019-02-21T11:13:41.466Z,99.90
2019-02-21T11:16:12.863Z,99.90
2019-02-21T11:18:44.274Z,99.50
2019-02-21T11:21:15.886Z,98.90
2019-02-21T11:23:47.171Z,98.80
2019-02-21T11:26:18.718Z,98.20
2019-02-21T11:28:50.143Z,97.90
2019-02-21T11:31:21.543Z,98.50
2019-02-21T11:33:53.030Z,98.50
2019-02-21T11:36:24.619Z,98.40
2019-02-21T11:38:55.916Z,98.20
2019-02-21T11:41:27.347Z,97.80
2019-02-21T11:43:58.633Z,97.70
2019-02-21T11:46:30.028Z,97.70
2019-02-21T11:49:01.396Z,98.70
2019-02-21T11:51:32.775Z,98.90
2019-02-21T11:54:04.158Z,98.90
2019-02-21T11:56:35.556Z,98.70
2019-02-21T11:59:06.918Z,97.90
2019-02-21T12:01:39.696Z,98.20
2019-02-21T12:04:11.219Z,97.90
2019-02-21T12:06:42.640Z,98.00
2019-02-21T12:09:14.168Z,98.00
2019-02-21T12:11:45.644Z,97.90
2019-02-21T12:14:17.011Z,97.70
2019-02-21T12:16:48.327Z,97.10
2019-02-21T12:19:19.687Z,97.00
2019-02-21T12:21:58.722Z,97.30
2019-02-21T12:24:24.163Z,97.50
2019-02-21T12:26:55.559Z,96.90
2019-02-21T12:29:26.879Z,97.40
2019-02-21T12:31:58.275Z,97.20
2019-02-21T12:34:29.590Z,96.60
2019-02-21T12:37:01.077Z,96.40
2019-02-21T12:39:32.513Z,96.20
2019-02-21T12:42:04.007Z,95.60
2019-02-21T12:44:36.325Z,95.70
2019-02-21T12:47:07.693Z,95.70
2019-02-21T12:49:39.063Z,95.20
2019-02-21T12:52:10.512Z,95.10
2019-02-21T12:54:41.825Z,94.90
2019-02-21T12:57:13.184Z,94.70
2019-02-21T12:59:44.663Z,93.70
2019-02-21T13:02:16.106Z,93.90
2019-02-21T13:04:47.660Z,94.50
2019-02-21T13:07:19.129Z,94.20
2019-02-21T13:09:50.544Z,94.70
2019-02-21T13:12:21.984Z,94.70
2019-02-21T13:14:53.357Z,93.70
2019-02-21T13:17:24.837Z,94.30
2019-02-21T13:19:56.209Z,94.80
2019-02-21T13:22:27.577Z,94.30
2019-02-21T13:25:00.826Z,93.10
2019-02-21T13:27:33.686Z,93.20
2019-02-21T13:30:08.804Z,92.90
2019-02-21T13:32:40.196Z,92.90
2019-02-21T13:35:12.176Z,93.00
2019-02-21T13:37:43.736Z,91.80
2019-02-21T13:40:21.213Z,92.00
2019-02-21T13:42:52.251Z,91.90
2019-02-21T13:45:23.648Z,92.00
2019-02-21T13:47:55.147Z,92.10
2019-02-21T13:50:26.652Z,92.20
2019-02-21T13:52:57.934Z,92.70
2019-02-21T13:55:29.404Z,93.00
2019-02-21T13:58:00.983Z,93.60
2019-02-21T14:00:32.407Z,93.30
2019-02-21T14:03:09.831Z,92.40
2019-02-21T14:05:43.033Z,92.00
2019-02-21T14:08:15.547Z,92.10
2019-02-21T14:10:46.895Z,91.80
2019-02-21T14:13:18.337Z,91.60
2019-02-21T14:15:49.834Z,91.50
2019-02-21T14:18:24.326Z,91.80
2019-02-21T14:20:54.646Z,92.10
2019-02-21T14:23:27.986Z,92.50
2019-02-21T14:25:59.303Z,93.10
2019-02-21T14:28:30.879Z,93.40
2019-02-21T14:31:03.412Z,93.10
2019-02-21T14:33:35.423Z,93.10
2019-02-21T14:36:15.137Z,93.30
2019-02-21T14:38:40.994Z,93.10
2019-02-21T14:41:12.462Z,92.80
2019-02-21T14:43:43.922Z,92.80
2019-02-21T14:46:16.815Z,92.00
2019-02-21T14:48:48.320Z,92.10
2019-02-21T14:51:19.702Z,92.30
2019-02-21T14:53:51.052Z,92.60
2019-02-21T14:56:22.493Z,92.80
2019-02-21T14:58:54.908Z,93.00
2019-02-21T15:01:26.972Z,93.20
2019-02-21T15:03:58.528Z,93.30
2019-02-21T15:06:32.601Z,92.90
2019-02-21T15:09:06.378Z,92.80
2019-02-21T15:11:38.536Z,93.00
2019-02-21T15:14:10.032Z,93.40
2019-02-21T15:16:41.306Z,93.70
2019-02-21T15:19:12.683Z,93.80
2019-02-21T15:21:44.022Z,93.10
2019-02-21T15:24:15.437Z,93.30
2019-02-21T15:26:46.982Z,93.30
2019-02-21T15:29:18.441Z,93.30
2019-02-21T15:31:50.108Z,93.00
2019-02-21T15:34:24.042Z,93.00
2019-02-21T15:36:55.462Z,93.00
2019-02-21T15:39:26.792Z,93.10
2019-02-21T15:41:58.104Z,93.20
2019-02-21T15:44:29.386Z,93.20
2019-02-21T15:47:01.030Z,93.30
2019-02-21T15:49:32.665Z,93.20
2019-02-21T15:52:04.273Z,93.30
2019-02-21T15:54:35.754Z,93.00
2019-02-21T15:57:07.592Z,93.40
2019-02-21T15:59:39.086Z,93.10
2019-02-21T16:02:10.465Z,93.70
2019-02-21T16:04:43.029Z,93.30
2019-02-21T16:07:14.804Z,93.00
2019-02-21T16:09:46.279Z,93.10
2019-02-21T16:12:18.301Z,93.80
2019-02-21T16:14:49.897Z,93.70
2019-02-21T16:17:21.326Z,93.50
2019-02-21T16:19:52.864Z,93.40
2019-02-21T16:22:24.246Z,93.70
2019-02-21T16:24:55.589Z,93.80
2019-02-21T16:27:27.183Z,93.30
2019-02-21T16:29:58.631Z,93.10
2019-02-21T16:32:29.925Z,94.20
2019-02-21T16:35:01.403Z,94.60
2019-02-21T16:37:32.901Z,94.70
2019-02-21T16:40:05.517Z,94.10
2019-02-21T16:42:36.977Z,94.20
2019-02-21T16:45:12.178Z,94.60
2019-02-21T16:47:43.752Z,94.60
2019-02-21T16:50:16.826Z,94.80
2019-02-21T16:52:48.104Z,95.00
2019-02-21T16:55:23.995Z,95.20
2019-02-21T16:57:55.520Z,95.00
2019-02-21T17:00:38.942Z,94.40
2019-02-21T17:03:04.009Z,94.80
2019-02-21T17:05:35.677Z,95.10
2019-02-21T17:08:08.160Z,95.30
2019-02-21T17:10:39.661Z,95.40
2019-02-21T17:13:11.110Z,95.20
2019-02-21T17:15:42.466Z,95.00
2019-02-21T17:18:14.069Z,95.20
2019-02-21T17:20:45.634Z,95.20
2019-02-21T17:23:22.949Z,95.30
2019-02-21T17:25:50.451Z,95.30
2019-02-21T17:28:23.982Z,95.40
2019-02-21T17:30:56.284Z,95.50
2019-02-21T17:33:27.717Z,95.90
2019-02-21T17:36:00.811Z,96.10
2019-02-21T17:38:32.374Z,95.90
2019-02-21T17:41:03.815Z,96.00
2019-02-21T17:43:38.911Z,96.20
2019-02-21T17:46:11.901Z,96.30
2019-02-21T17:48:44.565Z,96.40
2019-02-21T17:51:16.100Z,96.50
2019-02-21T17:53:47.606Z,96.40
2019-02-21T17:56:19.039Z,96.30
2019-02-21T17:58:50.490Z,96.50
2019-02-21T18:01:21.957Z,96.40
2019-02-21T18:03:53.406Z,96.50
2019-02-21T18:06:24.984Z,96.20
2019-02-21T18:08:57.857Z,96.10
2019-02-21T18:11:34.270Z,95.80
2019-02-21T18:14:05.463Z,96.00
2019-02-21T18:16:37.243Z,95.30
2019-02-21T18:19:08.776Z,95.50
2019-02-21T18:21:40.126Z,95.20
2019-02-21T18:24:11.557Z,95.20
2019-02-21T18:26:43.088Z,95.30
2019-02-21T18:29:14.607Z,95.40
2019-02-21T18:31:46.076Z,95.40
2019-02-21T18:34:17.479Z,95.50
2019-02-21T18:36:48.885Z,95.30
2019-02-21T18:39:20.642Z,95.60
2019-02-21T18:41:52.242Z,95.60
2019-02-21T18:44:23.697Z,95.60
2019-02-21T18:46:55.252Z,95.70
2019-02-21T18:49:27.187Z,95.60
2019-02-21T18:51:58.707Z,95.70
2019-02-21T18:54:30.227Z,95.80
2019-02-21T18:57:07.566Z,96.00
2019-02-21T18:59:39.256Z,96.10
2019-02-21T19:02:11.015Z,96.20
2019-02-21T19:04:42.533Z,96.20
2019-02-21T19:07:15.798Z,96.40
2019-02-21T19:09:48.937Z,96.50
2019-02-21T19:12:20.383Z,96.60
2019-02-21T19:14:51.862Z,96.50
2019-02-21T19:17:23.290Z,96.40
2019-02-21T19:19:55.737Z,96.40
2019-02-21T19:22:27.340Z,96.50
2019-02-21T19:24:58.701Z,96.60
2019-02-21T19:27:37.030Z,96.50
2019-02-21T19:30:03.409Z,96.80
2019-02-21T19:32:38.397Z,97.00
2019-02-21T19:35:12.181Z,97.10
2019-02-21T19:37:43.606Z,97.20
2019-02-21T19:40:15.975Z,97.10
2019-02-21T19:42:47.527Z,97.20
2019-02-21T19:45:36.775Z,97.20
2019-02-21T19:48:26.524Z,97.10
2019-02-21T19:51:08.552Z,97.50
2019-02-21T19:53:40.202Z,97.60
2019-02-21T19:56:11.791Z,97.80
2019-02-21T19:58:46.429Z,97.70
2019-02-21T20:01:18.090Z,97.60
2019-02-21T20:03:52.308Z,97.50
2019-02-21T20:06:23.836Z,97.50
2019-02-21T20:08:55.435Z,97.70
2019-02-21T20:11:26.958Z,97.80
2019-02-21T20:13:58.420Z,98.30
2019-02-21T20:16:29.901Z,98.50
2019-02-21T20:19:01.362Z,98.70
2019-02-21T20:21:32.841Z,98.80
2019-02-21T20:24:04.314Z,98.80
2019-02-21T20:26:35.662Z,98.90
2019-02-21T20:29:07.044Z,98.90
2019-02-21T20:31:39.230Z,98.90
2019-02-21T20:34:12.846Z,99.00
2019-02-21T20:36:50.967Z,99.00
2019-02-21T20:39:18.866Z,99.00
2019-02-21T20:41:53.231Z,98.90
2019-02-21T20:44:26.741Z,98.90
2019-02-21T20:46:58.116Z,98.90
2019-02-21T20:49:29.512Z,98.90
2019-02-21T20:52:01.163Z,98.80
2019-02-21T20:54:32.729Z,98.80
2019-02-21T20:57:04.235Z,98.70
2019-02-21T20:59:35.809Z,98.70
2019-02-21T21:02:07.532Z,98.70
2019-02-21T21:04:39.447Z,98.70
2019-02-21T21:07:11.122Z,98.60
2019-02-21T21:09:42.877Z,98.70
2019-02-21T21:12:14.390Z,98.50
2019-02-21T21:14:45.948Z,98.40
2019-02-21T21:17:17.447Z,98.30
2019-02-21T21:19:50.420Z,98.30
2019-02-21T21:22:21.769Z,98.30
2019-02-21T21:24:53.145Z,98.20
2019-02-21T21:27:24.585Z,98.30
2019-02-21T21:29:56.082Z,98.20
2019-02-21T21:32:27.503Z,98.10
2019-02-21T21:34:58.835Z,97.60
2019-02-21T21:37:30.379Z,97.40
2019-02-21T21:40:07.047Z,97.40
2019-02-21T21:42:38.725Z,97.50
2019-02-21T21:45:18.412Z,97.60
2019-02-21T21:47:49.896Z,98.20
2019-02-21T21:50:23.376Z,98.30
2019-02-21T21:52:54.900Z,98.40
2019-02-21T21:55:27.143Z,98.60
2019-02-21T21:57:58.481Z,98.50
2019-02-21T22:00:29.899Z,98.60
2019-02-21T22:03:01.243Z,98.70
2019-02-21T22:05:32.797Z,98.80
2019-02-21T22:08:04.643Z,99.00
2019-02-21T22:10:36.000Z,99.00
2019-02-21T22:13:07.335Z,98.90
2019-02-21T22:15:38.891Z,98.80
2019-02-21T22:18:10.305Z,98.80
2019-02-21T22:20:42.698Z,98.70
2019-02-21T22:23:14.057Z,98.80
2019-02-21T22:25:45.531Z,98.80
2019-02-21T22:28:16.802Z,98.90
2019-02-21T22:30:48.112Z,99.00
2019-02-21T22:33:19.525Z,99.30
2019-02-21T22:35:52.367Z,99.30
2019-02-21T22:38:23.727Z,99.40
2019-02-21T22:40:55.167Z,99.30
2019-02-21T22:43:26.419Z,99.20
2019-02-21T22:45:57.965Z,98.90
2019-02-21T22:48:29.257Z,99.00
2019-02-21T22:51:00.641Z,99.00
2019-02-21T22:53:31.924Z,99.30
2019-02-21T22:56:04.419Z,98.90
2019-02-21T22:58:44.709Z,98.70
2019-02-21T23:01:25.353Z,98.80
2019-02-21T23:04:05.780Z,98.90
2019-02-21T23:06:56.642Z,98.80
2019-02-21T23:09:28.392Z,99.00
2019-02-21T23:12:00.011Z,99.10
2019-02-21T23:14:32.604Z,98.90
2019-02-21T23:17:04.295Z,98.40
2019-02-21T23:19:35.786Z,98.40
2019-02-21T23:22:07.244Z,98.20
2019-02-21T23:24:38.618Z,98.20
2019-02-21T23:27:10.194Z,98.10
2019-02-21T23:29:41.477Z,98.00
2019-02-21T23:32:13.036Z,97.90
2019-02-21T23:34:44.812Z,97.90
2019-02-21T23:37:16.303Z,97.80
2019-02-21T23:39:47.666Z,97.70
2019-02-21T23:42:19.183Z,97.80
2019-02-21T23:44:50.693Z,97.80
2019-02-21T23:47:22.098Z,97.70
2019-02-21T23:49:53.361Z,97.60
2019-02-21T23:52:24.773Z,97.50
2019-02-21T23:54:57.947Z,97.50
2019-02-21T23:57:29.983Z,97.50
